Time;durP1;ratioP1;P1;durP2;ratioP2;P2;SDS_P1;SDS_P2;PMS_P1;PMS_P2;Temp;Humidity;BMP_temperature;BMP_pressure;BME280_temperature;BME280_humidity;BME280_pressure;Samples;Min_cycle;Max_cycle;Signal;HPM_P1;HPM_P2
2022/11/20 00:01:25;;;;;;;27.73;8.82;;;4.40;99.90;;;;;;5016859;28;20049;-73
2022/11/20 00:03:54;;;;;;;30.10;8.02;;;4.50;99.90;;;;;;5015922;28;20057;-74
2022/11/20 00:06:22;;;;;;;25.05;7.93;;;4.50;99.90;;;;;;5016897;28;20053;-72
2022/11/20 00:08:51;;;;;;;26.92;8.52;;;4.50;99.90;;;;;;5016671;28;20042;-73
2022/11/20 00:11:21;;;;;;;24.70;8.50;;;4.50;99.90;;;;;;5015484;28;20456;-72
2022/11/20 00:13:51;;;;;;;28.55;8.70;;;4.50;99.90;;;;;;5017053;28;20141;-73
2022/11/20 00:16:22;;;;;;;28.02;8.20;;;4.50;99.90;;;;;;5015801;28;20354;-72
2022/11/20 00:18:50;;;;;;;29.25;8.30;;;4.50;99.90;;;;;;4999462;28;20063;-72
2022/11/20 00:21:18;;;;;;;;;;;4.50;99.90;;;;;;4999888;28;20052;-73
2022/11/20 00:23:50;;;;;;;24.05;7.20;;;4.60;99.90;;;;;;4998246;28;20271;-74
2022/11/20 00:26:18;;;;;;;30.83;6.80;;;4.60;99.90;;;;;;4999628;28;20065;-74
2022/11/20 00:28:57;;;;;;;30.13;7.38;;;4.60;99.90;;;;;;5016463;28;20496;-73
2022/11/20 00:31:26;;;;;;;23.05;6.60;;;4.60;99.90;;;;;;5016529;28;20045;-74
2022/11/20 00:33:53;;;;;;;;;;;4.60;99.90;;;;;;4999728;28;20049;-72
2022/11/20 00:36:23;;;;;;;31.25;7.55;;;4.60;99.90;;;;;;5015269;28;20279;-73
2022/11/20 00:38:58;;;;;;;22.05;5.93;;;4.60;99.90;;;;;;5016230;28;20487;-73
2022/11/20 00:41:27;;;;;;;24.58;6.30;;;4.60;99.90;;;;;;4999153;28;20464;-72
2022/11/20 00:43:55;;;;;;;21.77;6.75;;;4.70;99.90;;;;;;5014862;28;20375;-73
2022/11/20 00:46:26;;;;;;;17.05;5.72;;;4.70;99.90;;;;;;5016054;28;20444;-73
2022/11/20 00:48:53;;;;;;;19.60;6.03;;;4.70;99.90;;;;;;4999293;28;20042;-73
2022/11/20 00:51:23;;;;;;;19.13;6.38;;;4.70;99.90;;;;;;5016206;28;20053;-74
2022/11/20 00:53:51;;;;;;;21.92;5.32;;;4.80;99.90;;;;;;5016244;28;20052;-72
2022/11/20 00:56:19;;;;;;;22.25;5.63;;;4.80;99.90;;;;;;5014807;28;20054;-73
2022/11/20 00:58:47;;;;;;;;;;;4.80;99.90;;;;;;5016150;28;20041;-73
2022/11/20 01:01:16;;;;;;;;;;;4.90;99.90;;;;;;5016332;28;19925;-73
2022/11/20 01:03:46;;;;;;;20.23;5.47;;;4.90;99.90;;;;;;5014570;28;20268;-73
2022/11/20 01:06:15;;;;;;;16.73;5.65;;;4.90;99.90;;;;;;5016003;28;20376;-72
2022/11/20 01:08:43;;;;;;;17.40;4.97;;;4.90;99.90;;;;;;5016055;28;20050;-72
2022/11/20 01:11:14;;;;;;;17.17;5.13;;;4.00;99.90;;;;;;5014514;28;20494;-73
2022/11/20 01:13:42;;;;;;;17.70;5.22;;;5.40;99.90;;;;;;5016152;28;20062;-73
2022/11/20 01:16:10;;;;;;;;;;;5.00;99.90;;;;;;5014827;28;20049;-73
2022/11/20 01:18:39;;;;;;;14.05;4.43;;;5.00;99.90;;;;;;5015791;28;19925;-73
2022/11/20 01:21:22;;;;;;;10.98;4.03;;;5.00;99.90;;;;;;5015373;28;20472;-73
2022/11/20 01:23:50;;;;;;;17.38;4.80;;;5.00;99.90;;;;;;4997445;28;20053;-73
2022/11/20 01:26:20;;;;;;;22.00;4.90;;;6.40;99.90;;;;;;5015433;28;20049;-72
2022/11/20 01:28:48;;;;;;;16.52;4.22;;;7.70;99.90;;;;;;5015840;28;20046;-73
2022/11/20 01:31:20;;;;;;;18.73;4.15;;;7.60;99.90;;;;;;5014208;28;20037;-72
2022/11/20 01:33:50;;;;;;;13.02;3.70;;;5.20;99.90;;;;;;5015212;28;20050;-74
2022/11/20 01:36:20;;;;;;;12.63;4.00;;;5.20;99.90;;;;;;5016391;28;20050;-72
2022/11/20 01:38:50;;;;;;;12.63;4.10;;;5.70;99.90;;;;;;5034870;28;20073;-73
2022/11/20 01:44:04;;;;;;;13.10;3.92;;;5.30;99.90;;;;;;5033664;28;20042;-72
2022/11/20 01:46:36;;;;;;;15.60;4.03;;;5.40;99.90;;;;;;5034770;28;20045;-74
2022/11/20 01:49:18;;;;;;;16.80;4.13;;;5.30;99.90;;;;;;5049429;28;20041;-74
2022/11/20 01:51:55;;;;;;;11.60;4.18;;;5.30;99.90;;;;;;5035146;28;20060;-73
2022/11/20 01:54:30;;;;;;;16.60;4.00;;;5.80;99.90;;;;;;5034922;28;20045;-73
2022/11/20 01:57:00;;;;;;;17.23;4.03;;;5.50;99.90;;;;;;5033625;28;20061;-73
2022/11/20 01:59:29;;;;;;;15.57;4.18;;;5.40;99.90;;;;;;5034785;28;20538;-72
2022/11/20 02:01:57;;;;;;;15.07;3.72;;;5.40;99.90;;;;;;5034103;28;20052;-72
2022/11/20 02:04:25;;;;;;;18.15;4.38;;;5.40;99.90;;;;;;5033458;28;20046;-73
2022/11/20 02:06:59;;;;;;;12.00;3.72;;;5.50;99.90;;;;;;5034902;28;20045;-72
2022/11/20 02:09:27;;;;;;;19.42;4.10;;;5.60;99.90;;;;;;5033429;28;20049;-73
2022/11/20 02:11:56;;;;;;;15.73;3.42;;;5.50;99.90;;;;;;5034688;28;20053;-73
2022/11/20 02:14:25;;;;;;;17.35;3.20;;;5.50;99.90;;;;;;5034808;28;20056;-72
2022/11/20 02:16:54;;;;;;;14.75;3.42;;;5.50;99.90;;;;;;5033744;28;20061;-72
2022/11/20 02:19:29;;;;;;;10.55;3.38;;;5.80;99.90;;;;;;5034405;28;20380;-74
2022/11/20 02:22:29;;;;;;;12.70;3.28;;;5.60;99.90;;;;;;5034645;28;20049;-73
2022/11/20 02:24:58;;;;;;;12.55;2.85;;;5.60;99.90;;;;;;5033559;28;20050;-74
2022/11/20 02:27:27;;;;;;;12.38;3.15;;;6.00;99.90;;;;;;5034451;28;20053;-72
2022/11/20 02:30:07;;;;;;;10.00;2.80;;;5.70;99.90;;;;;;5016243;28;20056;-73
2022/11/20 02:32:36;;;;;;;15.35;3.13;;;5.70;99.90;;;;;;5034370;28;20041;-73
2022/11/20 02:35:10;;;;;;;23.02;3.70;;;5.70;99.90;;;;;;5033025;28;20046;-72
2022/11/20 02:37:40;;;;;;;10.02;3.22;;;5.70;99.90;;;;;;4996464;28;20048;-73
2022/11/20 02:40:08;;;;;;;14.60;3.55;;;5.70;99.90;;;;;;4997742;28;20380;-73
2022/11/20 02:42:37;;;;;;;12.43;2.88;;;5.70;99.90;;;;;;5013548;28;20202;-73
2022/11/20 02:45:06;;;;;;;12.77;3.22;;;7.90;99.90;;;;;;4997908;28;20360;-74
2022/11/20 02:47:33;;;;;;;10.13;3.20;;;5.70;99.90;;;;;;5014520;28;20042;-74
2022/11/20 02:50:02;;;;;;;11.80;2.92;;;5.70;99.90;;;;;;5013493;28;20057;-73
2022/11/20 02:52:30;;;;;;;15.48;3.65;;;5.70;99.90;;;;;;5014570;28;20054;-73
2022/11/20 02:54:57;;;;;;;14.45;3.00;;;5.80;99.90;;;;;;4981449;28;20061;-74
2022/11/20 02:57:24;;;;;;;13.40;2.67;;;6.40;99.90;;;;;;5013237;28;20050;-74
2022/11/20 02:59:52;;;;;;;12.25;2.78;;;5.80;99.90;;;;;;5014781;28;20056;-73
2022/11/20 03:02:20;;;;;;;12.75;2.75;;;5.80;99.90;;;;;;5013382;28;20053;-73
2022/11/20 03:04:47;;;;;;;8.80;2.53;;;5.90;99.90;;;;;;5014505;28;20042;-73
2022/11/20 03:07:15;;;;;;;12.50;2.78;;;5.90;99.90;;;;;;5014440;28;20045;-74
2022/11/20 03:09:42;;;;;;;14.85;2.90;;;7.80;99.90;;;;;;5013106;28;20041;-72
2022/11/20 03:12:10;;;;;;;12.73;2.78;;;6.70;99.90;;;;;;5014272;28;20337;-73
2022/11/20 03:14:37;;;;;;;17.02;3.08;;;6.00;99.90;;;;;;5016921;28;20045;-73
2022/11/20 03:17:05;;;;;;;14.88;3.10;;;6.10;99.90;;;;;;5016790;28;20364;-72
2022/11/20 03:19:33;;;;;;;16.65;2.25;;;6.10;99.90;;;;;;5017941;28;20050;-73
2022/11/20 03:22:01;;;;;;;12.52;1.90;;;6.10;99.90;;;;;;5017646;28;20057;-71
2022/11/20 03:24:29;;;;;;;11.45;2.10;;;6.20;99.90;;;;;;5016368;28;20053;-73
2022/11/20 03:26:56;;;;;;;9.02;2.15;;;6.20;99.90;;;;;;5018040;28;20046;-73
2022/11/20 03:29:24;;;;;;;11.90;1.85;;;6.20;99.90;;;;;;5016507;28;20038;-71
2022/11/20 03:31:51;;;;;;;14.60;2.10;;;6.30;99.90;;;;;;5017603;28;20049;-72
2022/11/20 03:34:18;;;;;;;18.70;1.98;;;6.30;99.90;;;;;;5000445;28;20492;-72
2022/11/20 03:36:46;;;;;;;11.75;2.30;;;6.30;99.90;;;;;;5016372;28;20468;-73
2022/11/20 03:39:13;;;;;;;11.80;2.15;;;6.40;99.90;;;;;;5018012;28;20515;-72
2022/11/20 03:41:42;;;;;;;14.20;2.08;;;6.40;99.90;;;;;;5017286;28;20468;-73
2022/11/20 03:44:11;;;;;;;11.23;2.10;;;6.40;99.90;;;;;;5016217;28;20049;-73
2022/11/20 03:46:39;;;;;;;16.67;3.25;;;6.40;99.90;;;;;;5017288;28;20460;-72
2022/11/20 03:49:06;;;;;;;13.68;2.70;;;6.40;99.90;;;;;;4999164;28;20046;-73
2022/11/20 03:51:35;;;;;;;19.20;2.45;;;6.40;99.90;;;;;;4999887;28;20050;-72
2022/11/20 03:54:08;;;;;;;11.98;2.53;;;6.40;99.90;;;;;;5017016;28;20469;-72
2022/11/20 03:56:37;;;;;;;13.60;2.67;;;6.50;99.90;;;;;;5016399;28;20050;-72
2022/11/20 03:59:05;;;;;;;16.98;2.83;;;6.40;99.90;;;;;;5016891;28;20057;-71
2022/11/20 04:01:34;;;;;;;18.27;2.67;;;6.40;99.90;;;;;;5017083;28;20045;-73
2022/11/20 04:04:04;;;;;;;20.77;3.00;;;6.50;99.90;;;;;;5015602;28;20053;-73
2022/11/20 04:06:37;;;;;;;15.85;2.75;;;6.50;99.90;;;;;;5017670;28;20041;-71
2022/11/20 04:09:06;;;;;;;12.77;3.00;;;6.50;99.90;;;;;;4998941;28;20049;-73
2022/11/20 04:11:36;;;;;;;17.52;3.55;;;6.50;99.90;;;;;;5016703;28;20500;-73
2022/11/20 04:14:05;;;;;;;26.38;4.00;;;6.50;99.90;;;;;;5017087;28;20046;-72
2022/11/20 04:16:36;;;;;;;14.35;2.80;;;6.50;99.90;;;;;;5015710;28;20061;-73
2022/11/20 04:19:09;;;;;;;17.05;3.22;;;6.60;99.90;;;;;;5016751;28;20053;-73
2022/11/20 04:21:36;;;;;;;12.98;3.47;;;6.60;99.90;;;;;;5016513;28;20376;-72
2022/11/20 04:24:04;;;;;;;18.52;3.28;;;8.10;99.90;;;;;;4998171;28;20364;-73
2022/11/20 04:26:32;;;;;;;20.50;3.85;;;6.60;99.90;;;;;;5016761;28;20038;-73
2022/11/20 04:29:01;;;;;;;16.02;3.88;;;6.60;99.90;;;;;;4998419;28;20420;-72
2022/11/20 04:31:31;;;;;;;22.48;3.95;;;6.60;99.90;;;;;;5016952;28;20494;-72
2022/11/20 04:34:04;;;;;;;19.88;3.63;;;6.70;99.90;;;;;;5016328;28;20061;-72
2022/11/20 04:36:32;;;;;;;22.98;3.70;;;6.70;99.90;;;;;;5015382;28;20057;-72
2022/11/20 04:39:03;;;;;;;21.67;3.78;;;6.80;99.90;;;;;;5016499;28;20053;-72
2022/11/20 04:41:34;;;;;;;14.32;3.65;;;6.80;99.90;;;;;;4999208;28;20515;-72
2022/11/20 04:44:05;;;;;;;17.25;3.90;;;8.30;99.90;;;;;;5015104;28;20372;-73
2022/11/20 04:46:38;;;;;;;12.45;3.97;;;6.80;99.90;;;;;;5016564;28;20050;-72
2022/11/20 04:49:07;;;;;;;22.42;5.93;;;6.80;99.90;;;;;;5014954;28;20053;-73
2022/11/20 04:51:34;;;;;;;19.52;4.13;;;7.80;99.90;;;;;;5016133;28;20375;-73
2022/11/20 04:54:02;;;;;;;15.38;4.38;;;7.90;99.90;;;;;;5015954;28;20046;-74
2022/11/20 04:56:30;;;;;;;20.35;4.20;;;6.80;99.90;;;;;;4998164;28;20061;-73
2022/11/20 04:59:01;;;;;;;14.35;4.10;;;6.80;99.90;;;;;;5015992;28;20045;-71
2022/11/20 05:01:29;;;;;;;22.70;4.35;;;6.90;99.90;;;;;;5015807;28;20046;-71
2022/11/20 05:03:56;;;;;;;17.65;4.28;;;6.90;99.90;;;;;;5014846;28;20042;-72
2022/11/20 05:06:24;;;;;;;16.75;4.15;;;6.90;99.90;;;;;;5015951;28;20045;-73
2022/11/20 05:08:51;;;;;;;18.48;3.92;;;7.00;99.90;;;;;;5015816;28;20038;-73
2022/11/20 05:11:20;;;;;;;14.68;4.03;;;6.90;99.90;;;;;;4997414;28;20048;-72
2022/11/20 05:13:49;;;;;;;19.60;4.07;;;6.90;99.90;;;;;;5015792;28;20050;-73
2022/11/20 05:16:20;;;;;;;13.63;3.75;;;7.00;99.90;;;;;;5014506;28;20050;-71
2022/11/20 05:18:48;;;;;;;19.10;4.22;;;7.00;99.90;;;;;;4998511;28;20400;-71
2022/11/20 05:21:16;;;;;;;21.70;4.18;;;7.00;99.90;;;;;;5015697;28;20057;-73
2022/11/20 05:23:45;;;;;;;13.65;3.80;;;7.00;99.90;;;;;;5014886;28;20360;-72
2022/11/20 05:26:18;;;;;;;19.38;4.07;;;7.00;99.90;;;;;;4998286;28;20053;-73
2022/11/20 05:28:46;;;;;;;19.55;4.78;;;7.00;99.90;;;;;;5015610;28;20372;-73
2022/11/20 05:31:17;;;;;;;21.30;4.50;;;7.10;99.90;;;;;;5014201;28;20046;-73
2022/11/20 05:33:52;;;;;;;19.00;4.97;;;7.10;99.90;;;;;;5015251;28;20392;-72
2022/11/20 05:36:20;;;;;;;18.20;4.55;;;7.10;99.90;;;;;;5015902;28;20479;-72
2022/11/20 05:38:48;;;;;;;17.00;5.05;;;6.90;99.90;;;;;;5035317;28;20041;-71
2022/11/20 05:41:19;;;;;;;22.02;5.00;;;7.10;99.90;;;;;;5035122;28;20053;-72
2022/11/20 05:43:48;;;;;;;21.52;5.25;;;7.10;99.90;;;;;;5033760;28;20041;-73
2022/11/20 05:46:19;;;;;;;29.08;5.68;;;7.10;99.90;;;;;;5034767;28;20057;-72
2022/11/20 05:48:56;;;;;;;19.85;5.80;;;7.10;99.90;;;;;;5035163;28;20041;-73
2022/11/20 05:51:24;;;;;;;21.33;6.63;;;7.10;99.90;;;;;;5034792;28;20052;-72
2022/11/20 05:53:52;;;;;;;23.67;6.43;;;7.10;99.90;;;;;;5034945;28;20038;-71
2022/11/20 05:56:21;;;;;;;17.05;6.80;;;7.10;99.90;;;;;;5033903;28;20052;-72
2022/11/20 05:58:49;;;;;;;24.15;7.03;;;7.20;99.90;;;;;;5034465;28;20045;-72
2022/11/20 06:01:20;;;;;;;20.70;6.97;;;8.20;99.90;;;;;;5034005;28;20364;-72
2022/11/20 06:03:50;;;;;;;21.50;7.95;;;7.20;99.90;;;;;;5049428;28;20046;-72
2022/11/20 06:06:19;;;;;;;27.45;7.50;;;7.20;99.90;;;;;;5034807;28;20049;-71
2022/11/20 06:08:47;;;;;;;26.55;7.65;;;7.40;99.90;;;;;;5034707;28;20116;-72
2022/11/20 06:11:16;;;;;;;26.27;8.43;;;8.40;99.90;;;;;;5033436;28;20349;-73
2022/11/20 06:13:44;;;;;;;22.83;8.45;;;7.20;99.90;;;;;;5035138;28;20057;-73
2022/11/20 06:16:13;;;;;;;;;;;7.20;99.90;;;;;;5034015;28;20045;-73
2022/11/20 06:18:40;;;;;;;18.88;7.72;;;7.20;99.90;;;;;;5034987;28;19921;-73
2022/11/20 06:21:16;;;;;;;20.83;8.50;;;7.20;99.90;;;;;;5033756;28;20049;-72
2022/11/20 06:23:44;;;;;;;23.60;8.95;;;7.30;99.90;;;;;;5033398;28;20053;-71
2022/11/20 06:26:15;;;;;;;19.90;7.95;;;7.30;99.90;;;;;;5034586;28;20049;-71
2022/11/20 06:28:43;;;;;;;19.58;8.02;;;7.30;99.90;;;;;;5035119;28;20045;-72
2022/11/20 06:31:13;;;;;;;22.00;8.10;;;7.50;99.90;;;;;;5032713;28;20116;-72
2022/11/20 06:33:41;;;;;;;19.10;7.68;;;7.30;99.90;;;;;;5033791;28;20052;-73
2022/11/20 06:36:11;;;;;;;17.95;7.63;;;7.30;99.90;;;;;;5032286;28;20061;-72
2022/11/20 06:38:39;;;;;;;17.65;7.88;;;7.70;99.90;;;;;;5034777;28;20046;-72
2022/11/20 06:41:09;;;;;;;;;;;7.40;99.90;;;;;;5034909;28;20353;-72
2022/11/20 06:43:37;;;;;;;18.48;7.38;;;7.50;99.90;;;;;;5033194;28;19929;-73
2022/11/20 06:46:04;;;;;;;16.73;8.05;;;7.50;99.90;;;;;;5034349;28;20048;-72
2022/11/20 06:48:32;;;;;;;21.38;8.70;;;7.50;99.90;;;;;;5036265;28;20049;-72
2022/11/20 06:51:02;;;;;;;18.35;8.40;;;7.50;99.90;;;;;;5036976;28;20045;-72
2022/11/20 06:53:29;;;;;;;23.05;8.65;;;7.50;99.90;;;;;;5038346;28;20041;-74
2022/11/20 06:55:57;;;;;;;21.67;8.77;;;8.00;99.90;;;;;;5037350;28;20049;-74
2022/11/20 06:58:29;;;;;;;22.63;7.90;;;7.60;99.90;;;;;;5038286;28;20349;-74
2022/11/20 07:01:12;;;;;;;23.10;8.18;;;7.60;99.90;;;;;;5037785;28;20041;-75
2022/11/20 07:03:39;;;;;;;25.92;8.48;;;7.90;99.90;;;;;;5036885;28;20045;-74
2022/11/20 07:06:08;;;;;;;18.45;8.20;;;7.60;99.90;;;;;;5038326;28;20050;-74
2022/11/20 07:08:35;;;;;;;19.00;7.82;;;7.70;99.90;;;;;;5037752;28;20057;-74
2022/11/20 07:11:06;;;;;;;20.27;7.45;;;7.70;99.90;;;;;;5036605;28;20045;-74
2022/11/20 07:13:34;;;;;;;23.05;7.03;;;8.30;99.90;;;;;;5037540;28;20049;-74
2022/11/20 07:16:07;;;;;;;14.65;6.10;;;7.80;99.90;;;;;;5036686;28;20064;-74
2022/11/20 07:18:35;;;;;;;14.77;6.20;;;7.80;99.90;;;;;;5037616;28;20050;-74
2022/11/20 07:21:03;;;;;;;;;;;7.90;99.90;;;;;;5038152;28;20057;-74
2022/11/20 07:23:31;;;;;;;10.48;4.78;;;7.90;99.90;;;;;;5036323;28;20085;-74
2022/11/20 07:26:04;;;;;;;11.85;5.18;;;8.00;99.90;;;;;;5037225;28;20045;-75
2022/11/20 07:28:32;;;;;;;13.68;5.50;;;8.10;99.90;;;;;;5037341;28;20361;-74
2022/11/20 07:30:59;;;;;;;9.90;4.90;;;8.10;99.90;;;;;;5036537;28;20049;-74
2022/11/20 07:33:27;;;;;;;14.15;5.38;;;8.10;99.90;;;;;;5037691;28;20050;-74
2022/11/20 07:35:54;;;;;;;12.77;5.03;;;8.10;99.90;;;;;;5027889;28;20329;-74
2022/11/20 07:38:22;;;;;;;11.63;5.13;;;8.10;99.90;;;;;;5017286;28;20373;-74
2022/11/20 07:40:54;;;;;;;10.05;4.75;;;8.30;99.90;;;;;;5017787;28;20357;-74
2022/11/20 07:43:21;;;;;;;13.55;5.10;;;8.30;99.90;;;;;;4999366;28;20064;-74
2022/11/20 07:45:49;;;;;;;12.70;5.20;;;8.30;99.90;;;;;;5017556;28;20042;-74
2022/11/20 07:48:16;;;;;;;11.88;4.93;;;8.30;99.90;;;;;;5017383;28;20369;-74
2022/11/20 07:50:44;;;;;;;14.65;3.58;;;8.40;99.90;;;;;;5016042;28;20049;-74
2022/11/20 07:53:12;;;;;;;14.38;2.28;;;8.50;99.90;;;;;;5017264;28;20044;-74
2022/11/20 07:55:40;;;;;;;8.68;2.03;;;8.50;99.90;;;;;;4999368;28;20354;-77
2022/11/20 07:58:08;;;;;;;7.07;2.83;;;10.80;99.90;;;;;;5016900;28;20046;-78
2022/11/20 08:00:36;;;;;;;5.40;2.65;;;9.40;99.90;;;;;;5016130;28;20072;-77
2022/11/20 08:03:05;;;;;;;10.00;3.38;;;8.80;99.90;;;;;;4982644;28;20058;-78
2022/11/20 08:05:33;;;;;;;8.48;3.83;;;8.40;99.90;;;;;;4999672;28;20061;-77
2022/11/20 08:08:00;;;;;;;10.70;3.35;;;8.40;99.90;;;;;;4999825;28;20049;-77
2022/11/20 08:10:28;;;;;;;7.45;3.35;;;8.30;99.90;;;;;;5015676;28;20049;-77
2022/11/20 08:15:47;;;;;;;19.20;10.95;;;8.30;99.90;;;;;;5031774;28;20041;-76
2022/11/20 08:18:14;;;;;;;13.10;7.00;;;9.60;99.90;;;;;;5018970;28;20072;-77
2022/11/20 08:21:01;;;;;;;6.85;4.28;;;8.30;99.90;;;;;;5036462;28;20053;-76
2022/11/20 08:23:28;;;;;;;10.38;4.10;;;8.90;99.90;;;;;;5002012;28;20053;-77
2022/11/20 08:25:56;;;;;;;8.82;3.92;;;10.50;99.90;;;;;;5036453;28;20044;-77
2022/11/20 08:28:23;;;;;;;7.13;3.65;;;10.00;99.90;;;;;;5019044;28;20045;-77
2022/11/20 08:30:51;;;;;;;11.93;3.95;;;8.30;99.90;;;;;;5035109;28;20046;-77
2022/11/20 08:33:18;;;;;;;7.45;3.40;;;8.40;99.90;;;;;;5036239;28;20068;-77
2022/11/20 08:35:46;;;;;;;9.25;3.25;;;8.90;99.90;;;;;;5034584;28;20053;-77
2022/11/20 08:38:13;;;;;;;5.05;2.92;;;10.10;99.90;;;;;;5035806;28;20056;-77
2022/11/20 08:41:23;;;;;;;8.20;3.38;;;8.40;99.90;;;;;;5035750;28;20046;-77
2022/11/20 08:43:28;;;;;;;6.25;2.75;;;8.40;99.90;;;;;;5034934;28;20068;-77
2022/11/20 08:45:59;;;;;;;7.38;3.50;;;8.40;99.90;;;;;;5035525;28;20056;-77
2022/11/20 08:48:26;;;;;;;7.55;3.13;;;8.40;99.90;;;;;;5035765;28;20052;-76
2022/11/20 08:50:58;;;;;;;8.63;3.47;;;9.80;99.90;;;;;;5000632;28;20054;-76
2022/11/20 08:53:26;;;;;;;6.90;3.42;;;8.40;99.90;;;;;;5035586;28;20287;-77
2022/11/20 08:55:54;;;;;;;6.75;3.70;;;8.50;99.90;;;;;;5034333;28;20045;-76
2022/11/20 08:58:21;;;;;;;8.55;3.95;;;8.30;99.90;;;;;;5035386;28;20377;-76
2022/11/20 09:00:48;;;;;;;10.00;4.37;;;8.40;99.90;;;;;;5035361;28;20046;-76
2022/11/20 09:03:16;;;;;;;10.38;5.10;;;8.40;99.90;;;;;;5016978;28;20625;-77
2022/11/20 09:05:44;;;;;;;8.18;5.20;;;8.40;99.90;;;;;;5035034;28;20053;-77
2022/11/20 09:08:11;;;;;;;15.00;5.90;;;10.20;99.90;;;;;;5035062;28;20050;-77
2022/11/20 09:10:41;;;;;;;13.73;5.78;;;8.80;99.90;;;;;;5034086;28;20052;-76
2022/11/20 09:13:09;;;;;;;14.13;6.68;;;9.90;99.90;;;;;;5035305;28;20397;-76
2022/11/20 09:15:36;;;;;;;16.37;6.50;;;9.60;99.90;;;;;;5017816;28;20472;-74
2022/11/20 09:18:04;;;;;;;15.18;6.70;;;9.80;99.90;;;;;;5034990;28;20282;-75
2022/11/20 09:20:32;;;;;;;16.88;7.00;;;8.30;99.90;;;;;;5035000;28;20491;-77
2022/11/20 09:22:59;;;;;;;11.82;6.57;;;8.30;99.90;;;;;;5016790;28;20380;-76
2022/11/20 09:25:27;;;;;;;15.93;6.75;;;8.30;99.90;;;;;;5034951;28;20045;-76
2022/11/20 09:27:56;;;;;;;17.20;7.78;;;10.00;99.90;;;;;;5034828;28;20049;-76
2022/11/20 09:30:23;;;;;;;15.43;6.07;;;10.20;99.90;;;;;;5033766;28;20053;-76
2022/11/20 09:32:53;;;;;;;21.60;7.03;;;9.00;99.90;;;;;;5034506;28;20048;-78
2022/11/20 09:35:21;;;;;;;21.60;6.30;;;9.60;99.90;;;;;;5034960;28;20048;-74
2022/11/20 09:37:49;;;;;;;17.52;6.50;;;8.40;99.90;;;;;;5033712;28;20049;-75
2022/11/20 09:40:22;;;;;;;24.40;7.30;;;8.40;99.90;;;;;;5035414;28;20088;-75
2022/11/20 09:42:57;;;;;;;21.38;7.35;;;8.30;99.90;;;;;;5033844;28;20049;-75
2022/11/20 09:45:47;;;;;;;24.38;7.25;;;8.20;99.90;;;;;;5034946;28;20057;-78
2022/11/20 09:48:34;;;;;;;24.20;9.13;;;8.20;99.90;;;;;;5018169;28;20042;-75
2022/11/20 09:51:35;;;;;;;29.27;8.13;;;8.10;99.90;;;;;;5016798;28;20468;-77
2022/11/20 09:54:20;;;;;;;26.92;9.82;;;8.10;99.90;;;;;;5034726;28;20056;-76
2022/11/20 09:56:53;;;;;;;25.63;8.65;;;10.60;99.90;;;;;;5033965;28;20483;-78
2022/11/20 09:59:26;;;;;;;25.27;8.50;;;9.80;99.90;;;;;;5035138;28;20060;-76
2022/11/20 10:01:55;;;;;;;23.63;8.65;;;8.20;99.90;;;;;;5001216;28;20061;-77
2022/11/20 10:04:24;;;;;;;25.60;9.60;;;8.20;99.90;;;;;;5032681;28;20041;-76
2022/11/20 10:07:03;;;;;;;26.58;9.48;;;8.10;99.90;;;;;;5020949;28;20363;-74
2022/11/20 10:09:54;;;;;;;40.15;9.63;;;8.10;99.90;;;;;;5022909;28;20034;-77
2022/11/20 10:12:48;;;;;;;24.00;8.05;;;8.10;99.90;;;;;;5023162;28;20037;-75
2022/11/20 10:15:31;;;;;;;28.55;8.73;;;8.00;99.90;;;;;;5013389;28;20041;-77
2022/11/20 10:18:04;;;;;;;33.75;8.27;;;8.00;99.90;;;;;;5033321;28;20050;-76
2022/11/20 10:20:51;;;;;;;29.27;8.38;;;8.00;99.90;;;;;;5034571;28;20050;-77
2022/11/20 10:23:24;;;;;;;32.33;8.68;;;8.00;99.90;;;;;;5018626;28;20049;-78
2022/11/20 10:26:03;;;;;;;25.70;7.32;;;7.90;99.90;;;;;;5021478;28;20046;-78
2022/11/20 10:28:30;;;;;;;39.17;8.70;;;;;;;;;;5021476;28;20045;-79
2022/11/20 10:31:04;;;;;;;36.83;8.40;;;7.90;99.90;;;;;;5020037;28;20041;-77
2022/11/20 10:33:42;;;;;;;35.28;7.80;;;8.50;99.90;;;;;;5038294;28;20041;-78
2022/11/20 10:36:36;;;;;;;36.03;8.07;;;8.30;99.90;;;;;;5042351;28;20048;-78
2022/11/20 10:39:14;;;;;;;35.53;8.90;;;7.90;99.90;;;;;;5058212;28;20037;-77
2022/11/20 10:41:42;;;;;;;26.23;6.28;;;8.20;99.90;;;;;;5058441;28;20041;-76
2022/11/20 10:47:05;;;;;;;33.90;7.43;;;8.20;99.90;;;;;;5058037;28;20064;-76
2022/11/20 10:49:34;;;;;;;35.00;7.63;;;8.00;99.90;;;;;;5056084;28;20045;-76
2022/11/20 10:52:10;;;;;;;35.63;7.60;;;9.90;99.90;;;;;;5057903;28;20059;-75
2022/11/20 10:54:46;;;;;;;35.58;8.60;;;8.00;99.90;;;;;;5057394;28;20052;-76
2022/11/20 10:57:56;;;;;;;39.38;7.60;;;8.00;99.90;;;;;;5056079;28;20053;-76
2022/11/20 11:00:24;;;;;;;36.60;7.72;;;8.00;99.90;;;;;;5057997;28;20048;-75
2022/11/20 11:02:56;;;;;;;29.08;6.57;;;8.10;99.90;;;;;;5056758;28;20488;-75
2022/11/20 11:05:39;;;;;;;29.58;5.55;;;8.10;99.90;;;;;;5058047;28;20044;-76
2022/11/20 11:08:13;;;;;;;35.47;6.80;;;8.10;99.90;;;;;;5056988;28;20397;-75
2022/11/20 11:11:01;;;;;;;30.77;7.30;;;8.20;99.90;;;;;;5056649;28;20455;-75
2022/11/20 11:13:30;;;;;;;36.70;6.50;;;8.20;99.90;;;;;;5057741;28;20041;-76
2022/11/20 11:15:58;;;;;;;34.97;5.80;;;9.10;99.90;;;;;;5056369;28;20376;-75
2022/11/20 11:18:29;;;;;;;32.75;5.20;;;9.60;99.90;;;;;;5056566;28;20056;-74
2022/11/20 11:20:59;;;;;;;29.65;5.32;;;8.30;99.90;;;;;;5056649;28;20076;-76
2022/11/20 11:23:33;;;;;;;34.85;5.28;;;8.60;99.90;;;;;;5056204;28;20045;-76
2022/11/20 11:26:03;;;;;;;38.70;5.72;;;8.60;99.90;;;;;;5057977;28;20482;-76
2022/11/20 11:28:31;;;;;;;32.22;4.47;;;8.40;99.90;;;;;;5057525;28;20045;-75
2022/11/20 11:30:59;;;;;;;;;;;8.50;99.90;;;;;;5056565;28;20045;-77
2022/11/20 11:33:33;;;;;;;41.30;5.13;;;8.50;99.90;;;;;;5056484;28;20259;-76
2022/11/20 11:36:04;;;;;;;33.78;4.57;;;8.50;99.90;;;;;;5046595;28;20053;-76
2022/11/20 11:38:45;;;;;;;30.85;4.32;;;8.50;99.90;;;;;;5037892;28;20051;-74
2022/11/20 11:41:18;;;;;;;30.52;4.55;;;8.50;99.90;;;;;;5037449;28;20049;-76
2022/11/20 11:46:54;;;;;;;52.67;5.28;;;8.50;99.90;;;;;;5036948;28;20484;-73
2022/11/20 11:49:22;;;;;;;45.20;5.40;;;9.00;99.90;;;;;;5018877;28;20048;-77
2022/11/20 11:51:55;;;;;;;;;;;8.60;99.90;;;;;;5020303;28;20373;-75
2022/11/20 11:54:27;;;;;;;49.13;5.07;;;8.60;99.90;;;;;;5037610;28;19921;-77
2022/11/20 11:56:56;;;;;;;45.95;5.05;;;;;;;;;;5035869;28;20468;-77
2022/11/20 11:59:53;;;;;;;37.45;4.45;;;8.60;99.90;;;;;;5037177;28;20391;-73
2022/11/20 12:02:39;;;;;;;27.63;3.58;;;10.80;99.90;;;;;;5028692;28;20361;-71
2022/11/20 12:05:19;;;;;;;34.67;4.68;;;10.50;99.90;;;;;;5034174;28;20491;-76
2022/11/20 12:08:24;;;;;;;39.53;4.68;;;8.60;99.90;;;;;;5036040;28;20037;-78
2022/11/20 12:10:52;;;;;;;28.83;4.00;;;;;;;;;;5034137;28;20052;-77
2022/11/20 12:13:44;;;;;;;28.60;4.20;;;8.70;99.90;;;;;;5036627;28;20049;-77
2022/11/20 12:16:15;;;;;;;38.92;4.95;;;8.80;99.90;;;;;;5026257;28;20045;-77
2022/11/20 12:18:43;;;;;;;30.92;4.50;;;9.00;99.90;;;;;;5030820;28;20045;-73
2022/11/20 12:21:19;;;;;;;;;;;10.60;99.90;;;;;;5028852;28;20056;-72
2022/11/20 12:23:52;;;;;;;31.70;4.63;;;8.80;99.90;;;;;;5019404;28;19921;-72
2022/11/20 12:26:46;;;;;;;39.75;4.88;;;10.50;99.90;;;;;;5016630;28;20050;-72
2022/11/20 12:29:31;;;;;;;34.83;4.28;;;8.90;99.90;;;;;;5033654;28;20457;-74
2022/11/20 12:32:20;;;;;;;31.50;4.13;;;8.90;99.90;;;;;;5019281;28;20048;-74
2022/11/20 12:35:00;;;;;;;34.95;4.90;;;9.00;99.90;;;;;;5036182;28;20048;-74
2022/11/20 12:37:40;;;;;;;37.80;3.95;;;9.00;99.90;;;;;;5034785;28;20357;-74
2022/11/20 12:40:14;;;;;;;32.13;4.15;;;9.10;99.90;;;;;;5035534;28;20080;-73
2022/11/20 12:46:03;;;;;;;28.45;4.60;;;9.20;99.90;;;;;;5017065;28;20069;-75
2022/11/20 12:48:37;;;;;;;35.78;5.07;;;9.30;99.90;;;;;;5016352;28;20468;-75
2022/11/20 12:51:32;;;;;;;32.55;4.32;;;9.40;99.90;;;;;;5014872;28;20372;-80
2022/11/20 12:54:46;;;;;;;36.15;5.45;;;9.40;99.90;;;;;;5015604;28;20380;-79
2022/11/20 12:57:38;;;;;;;28.52;4.95;;;10.50;99.90;;;;;;5023393;28;20460;-72
2022/11/20 13:00:20;;;;;;;25.50;4.18;;;9.30;99.90;;;;;;5035740;28;20491;-72
2022/11/20 13:02:54;;;;;;;32.38;4.25;;;9.40;99.90;;;;;;5034744;28;20037;-73
2022/11/20 13:05:31;;;;;;;31.45;4.20;;;9.30;99.90;;;;;;5033794;28;20045;-76
2022/11/20 13:08:40;;;;;;;26.60;3.90;;;9.40;99.90;;;;;;5034243;28;20038;-78
2022/11/20 13:11:58;;;;;;;30.70;5.00;;;9.30;99.90;;;;;;5034044;28;20522;-80
2022/11/20 13:14:42;;;;;;;20.60;3.78;;;7.90;99.90;;;;;;4975195;28;20047;-80
2022/11/20 13:17:12;;;;;;;33.38;4.10;;;;;;;;;;5034468;28;20068;-77
2022/11/20 13:19:42;;;;;;;27.38;3.63;;;;;;;;;;5034499;28;20381;-79
2022/11/20 13:22:11;;;;;;;31.88;4.25;;;;;;;;;;5034877;28;20042;-75
2022/11/20 13:24:39;;;;;;;29.17;4.13;;;;;;;;;;5034088;28;20057;-80
2022/11/20 13:27:12;;;;;;;30.00;4.05;;;9.40;99.90;;;;;;5035241;28;20061;-76
2022/11/20 13:29:44;;;;;;;33.53;4.22;;;9.40;99.90;;;;;;5033422;28;20045;-78
2022/11/20 13:32:15;;;;;;;28.27;3.75;;;;;;;;;;5035366;28;20448;-78